Flight Track Log - Related Links

Times and Time Zones

All times are in EDT time to prevent confusion due to time zone crossing. See the N40BZ flight status page for this flight to view local times or setup timezone preferences in your user account.

Time Position Orientation Groundspeed Altitude Reporting Facility
EDT Latitude Longitude Course Direction KTS MPH feet Rate Location/Type
Wed 07:32:40 AM 42.9333 -78.7000 144° Southeast 122 140 1,200  Level Buffalo TRACON
Wed 07:33:34 AM 42.9167 -78.6833 144° Southeast 115 132 2,100 947 Climbing Buffalo TRACON
Wed 07:34:34 AM 42.8833 -78.6833 180° South 124 143 3,000 882 Climbing Buffalo TRACON
Wed 07:35:16 AM 42.8558 -78.6933 195° South 119 137 3,600 932 Climbing Cleveland Center
Wed 07:36:17 AM 42.8239 -78.7156 207° Southwest 126 145 4,600 976 Climbing Cleveland Center
Wed 07:37:19 AM 42.7908 -78.7381 207° Southwest 128 147 5,600 927 Climbing Cleveland Center
Wed 07:38:20 AM 42.7608 -78.7597 208° Southwest 121 139 6,500 878 Climbing Cleveland Center
Wed 07:39:22 AM 42.7281 -78.7817 206° Southwest 126 145 7,400 878 Climbing Cleveland Center
Wed 07:40:23 AM 42.6956 -78.8050 208° Southwest 128 147 8,300 780 Climbing Cleveland Center
Wed 07:41:25 AM 42.6642 -78.8261 206° Southwest 130 150 9,000 774 Climbing Cleveland Center
Wed 07:42:27 AM 42.6289 -78.8514 208° Southwest 137 158 9,900 780 Climbing Cleveland Center
Wed 07:43:28 AM 42.5958 -78.8733 206° Southwest 142 163 10,600 732 Climbing Cleveland Center
Wed 07:44:30 AM 42.5611 -78.8981 208° Southwest 142 163 11,400 677 Climbing Cleveland Center
Wed 07:45:32 AM 42.5169 -78.9286 207° Southwest 149 171 12,000 293 Climbing Cleveland Center
Wed 07:46:33 AM 42.4719 -78.9586 206° Southwest 179 206 12,000  Level Cleveland Center
Wed 07:47:35 AM 42.4289 -78.9894 208° Southwest 186 214 12,000  Level Cleveland Center
Wed 07:48:37 AM 42.3822 -79.0225 208° Southwest 189 217 12,000  Level Cleveland Center
Wed 07:49:38 AM 42.3353 -79.0544 207° Southwest 190 219 12,000  Level Cleveland Center
Wed 07:50:40 AM 42.2794 -79.0919 206° Southwest 190 219 12,000  Level Cleveland Center
Wed 07:51:42 AM 42.2331 -79.1231 206° Southwest 190 219 12,000  Level Cleveland Center
Wed 07:52:44 AM 42.1861 -79.1550 207° Southwest 191 220 12,000  Level Cleveland Center
Wed 07:53:45 AM 42.1403 -79.1861 207° Southwest 188 216 12,000  Level Cleveland Center
Wed 07:54:47 AM 42.0933 -79.2189 207° Southwest 191 220 12,000  Level Cleveland Center
Wed 07:55:49 AM 42.0456 -79.2533 208° Southwest 196 226 12,000  Level Cleveland Center
Wed 07:56:51 AM 41.9903 -79.2911 207° Southwest 188 216 12,000  Level Cleveland Center
Wed 07:57:53 AM 41.9431 -79.3217 206° Southwest 189 217 12,000  Level Cleveland Center
Wed 07:58:55 AM 41.8967 -79.3525 206° Southwest 189 217 12,000  Level Cleveland Center
Wed 07:59:56 AM 41.8500 -79.3836 206° Southwest 188 216 12,000  Level Cleveland Center
Wed 08:00:58 AM 41.8039 -79.4158 208° Southwest 189 217 12,000  Level Cleveland Center
Wed 08:02:00 AM 41.7481 -79.4531 206° Southwest 189 217 12,000  Level Cleveland Center
Wed 08:03:02 AM 41.7017 -79.4847 207° Southwest 189 217 12,000  Level Cleveland Center
Wed 08:04:04 AM 41.6558 -79.5147 206° Southwest 186 214 12,000  Level Cleveland Center
Wed 08:05:06 AM 41.6083 -79.5456 206° Southwest 189 217 12,000  Level Cleveland Center
Wed 08:06:08 AM 41.5622 -79.5767 207° Southwest 188 216 12,000  Level Cleveland Center
Wed 08:07:10 AM 41.5158 -79.6075 206° Southwest 187 215 12,000  Level Cleveland Center
Wed 08:08:12 AM 41.4600 -79.6444 206° Southwest 188 216 12,000  Level Cleveland Center
Wed 08:09:13 AM 41.4125 -79.6764 207° Southwest 191 220 12,000  Level Cleveland Center
Wed 08:10:15 AM 41.3661 -79.7058 205° Southwest 187 215 12,000  Level Cleveland Center
Wed 08:11:17 AM 41.3214 -79.7375 208° Southwest 185 213 12,000  Level Cleveland Center
Wed 08:12:19 AM 41.2739 -79.7675 205° Southwest 188 216 12,000  Level Cleveland Center
Wed 08:13:21 AM 41.2172 -79.8039 206° Southwest 189 217 12,000  Level Cleveland Center
Wed 08:14:23 AM 41.1711 -79.8361 208° Southwest 189 217 12,000  Level Cleveland Center
Wed 08:15:25 AM 41.1214 -79.8675 205° Southwest 189 217 12,000  Level Cleveland Center
Wed 08:16:27 AM 41.0758 -79.8989 207° Southwest 186 214 12,000  Level Cleveland Center
Wed 08:17:29 AM 41.0289 -79.9297 206° Southwest 187 215 12,000  Level Cleveland Center
Wed 08:18:31 AM 40.9811 -79.9600 206° Southwest 190 219 12,000  Level Cleveland Center
Wed 08:19:33 AM 40.9353 -79.9906 207° Southwest 186 214 12,000  Level Cleveland Center
Wed 08:20:35 AM 40.8792 -80.0264 206° Southwest 186 214 12,000  Level Cleveland Center
Wed 08:21:37 AM 40.8369 -80.0542 206° Southwest 185 213 12,000  Level Cleveland Center
Wed 08:22:39 AM 40.7900 -80.0850 206° Southwest 187 215 12,000  Level Cleveland Center
Wed 08:23:41 AM 40.7347 -80.1217 207° Southwest 185 213 12,000  Level Cleveland Center
Wed 08:24:43 AM 40.6875 -80.1519 206° Southwest 188 216 12,000  Level Cleveland Center
Wed 08:25:45 AM 40.6411 -80.1819 206° Southwest 187 215 12,000  Level Cleveland Center
Wed 08:26:47 AM 40.5936 -80.2125 206° Southwest 189 217 12,000  Level Cleveland Center
Wed 08:27:49 AM 40.5467 -80.2422 206° Southwest 188 216 12,000  Level Cleveland Center
Wed 08:28:51 AM 40.4903 -80.2781 206° Southwest 189 217 12,000  Level Cleveland Center
Wed 08:29:53 AM 40.4442 -80.3092 207° Southwest 188 216 12,000  Level Cleveland Center
Wed 08:30:56 AM 40.3978 -80.3372 205° Southwest 185 213 12,000  Level Cleveland Center
Wed 08:31:58 AM 40.3481 -80.3700 207° Southwest 188 216 12,000  Level Cleveland Center
Wed 08:33:00 AM 40.3014 -80.4008 207° Southwest 190 219 12,000  Level Cleveland Center
Wed 08:34:02 AM 40.2544 -80.4306 206° Southwest 189 217 12,000  Level Cleveland Center
Wed 08:35:04 AM 40.2069 -80.4600 205° Southwest 190 219 12,000  Level Cleveland Center
Wed 08:36:06 AM 40.1608 -80.4897 206° Southwest 187 215 12,000  Level Cleveland Center
Wed 08:37:08 AM 40.1042 -80.5242 205° Southwest 188 216 12,000  Level Cleveland Center
Wed 08:38:10 AM 40.0519 -80.5297 185° South 190 219 12,000  Level Cleveland Center
Wed 08:39:12 AM 40.0036 -80.5547 202° Southwest 194 223 12,000  Level Cleveland Center
Wed 08:40:14 AM 39.9578 -80.5839 206° Southwest 185 213 12,000  Level Cleveland Center
Wed 08:41:16 AM 39.9100 -80.6139 206° Southwest 190 219 12,000  Level Cleveland Center
Wed 08:42:01 AM 39.8678 -80.6414 207° Southwest 188 216 12,000  Level Indianapolis Center
Wed 08:43:03 AM 39.8217 -80.6736 208° Southwest 187 215 12,000  Level Indianapolis Center
Wed 08:44:04 AM 39.7744 -80.7031 206° Southwest 188 216 12,000  Level Indianapolis Center
Wed 08:45:06 AM 39.7278 -80.7339 207° Southwest 188 216 12,000  Level Indianapolis Center
Wed 08:46:08 AM 39.6808 -80.7633 206° Southwest 187 215 12,000  Level Indianapolis Center
Wed 08:47:09 AM 39.6344 -80.7942 207° Southwest 186 214 12,000  Level Indianapolis Center
Wed 08:48:11 AM 39.5800 -80.8297 207° Southwest 182 209 12,000  Level Indianapolis Center
Wed 08:49:13 AM 39.5333 -80.8594 206° Southwest 185 213 12,000  Level Indianapolis Center
Wed 08:50:14 AM 39.4875 -80.8886 206° Southwest 184 212 12,000  Level Indianapolis Center
Wed 08:51:16 AM 39.4411 -80.9194 207° Southwest 186 214 12,000  Level Indianapolis Center
Wed 08:52:18 AM 39.3950 -80.9503 207° Southwest 186 214 12,000  Level Indianapolis Center
Wed 08:53:19 AM 39.3481 -80.9803 206° Southwest 187 215 12,000 -195 Level Indianapolis Center
Wed 08:54:21 AM 39.3006 -81.0103 206° Southwest 189 217 11,600 -435 Descending Indianapolis Center
Wed 08:55:23 AM 39.2494 -81.0425 206° Southwest 199 229 11,100 -532 Descending Indianapolis Center
Wed 08:56:25 AM 39.1894 -81.0814 207° Southwest 201 231 10,500 -537 Descending Indianapolis Center
Wed 08:57:26 AM 39.1394 -81.1133 206° Southwest 200 230 10,000 -488 Descending Indianapolis Center
Wed 08:58:28 AM 39.0897 -81.1453 207° Southwest 199 229 9,500 -484 Descending Indianapolis Center
Wed 08:59:30 AM 39.0392 -81.1769 206° Southwest 200 230 9,000 -484 Descending Indianapolis Center
Wed 09:00:32 AM 38.9897 -81.2067 205° Southwest 198 228 8,500 -484 Descending Indianapolis Center
Wed 09:01:34 AM 38.9406 -81.2336 203° Southwest 194 223 8,000 -488 Descending Indianapolis Center
Wed 09:02:35 AM 38.8917 -81.2611 204° Southwest 191 220 7,500 -488 Descending Indianapolis Center
Wed 09:03:37 AM 38.8453 -81.2864 203° Southwest 187 215 7,000 -532 Descending Indianapolis Center
Wed 09:04:39 AM 38.7900 -81.3172 203° Southwest 182 209 6,400 -581 Descending Indianapolis Center
Wed 09:05:41 AM 38.7439 -81.3431 204° Southwest 180 207 5,800 -677 Descending Indianapolis Center
Wed 09:06:43 AM 38.6956 -81.3700 204° Southwest 183 211 5,000 -683 Descending Indianapolis Center
Wed 09:07:44 AM 38.6469 -81.3964 203° Southwest 186 214 4,400 -537 Descending Indianapolis Center
Wed 09:08:46 AM 38.6006 -81.4217 203° Southwest 182 209 3,900 -387 Descending Indianapolis Center
Wed 09:09:48 AM 38.5558 -81.4464 203° Southwest 177 204 3,600 -290 Descending Indianapolis Center
Wed 09:10:50 AM 38.5122 -81.4703 203° Southwest 172 198 3,300 -339 Descending Indianapolis Center
Wed 09:11:52 AM 38.4697 -81.4942 204° Southwest 169 194 2,900 -435 Descending Indianapolis Center
Wed 09:12:54 AM 38.4292 -81.5189 206° Southwest 165 190 2,400 -677 Descending Indianapolis Center
Wed 09:13:56 AM 38.3997 -81.5619 229° Southwest 143 165 1,500 -537 Descending Indianapolis Center
Wed 09:14:57 AM 38.3783 -81.5922 228° Southwest 136 157 1,300 -197 Descending Indianapolis Center

Login

Don't have an account? Register now (free) for customized features, flight alerts, and more!